createdAt,value
2019-04-10T00:00:41.304Z,59.98
2019-04-10T00:03:08.271Z,60.10
2019-04-10T00:05:34.190Z,63.10
2019-04-10T00:08:00.001Z,59.00
2019-04-10T00:10:25.821Z,61.63
2019-04-10T00:12:52.000Z,57.33
2019-04-10T00:15:18.800Z,64.77
2019-04-10T00:17:45.133Z,65.17
2019-04-10T00:20:11.928Z,62.95
2019-04-10T00:22:38.710Z,62.00
2019-04-10T00:25:05.020Z,62.33
2019-04-10T00:27:31.119Z,60.43
2019-04-10T00:29:56.930Z,60.45
2019-04-10T00:32:23.724Z,53.67
2019-04-10T00:34:49.766Z,57.40
2019-04-10T00:37:23.863Z,63.03
2019-04-10T00:39:44.498Z,58.73
2019-04-10T00:42:10.508Z,53.83
2019-04-10T00:44:37.447Z,60.45
2019-04-10T00:47:04.421Z,63.38
2019-04-10T00:49:31.440Z,60.12
2019-04-10T00:51:57.558Z,64.17
2019-04-10T00:54:23.750Z,57.80
2019-04-10T00:56:50.607Z,71.25
2019-04-10T00:59:16.477Z,57.43
2019-04-10T01:01:43.637Z,59.80
2019-04-10T01:04:10.560Z,58.68
2019-04-10T01:06:36.487Z,56.90
2019-04-10T01:09:04.899Z,63.07
2019-04-10T01:11:30.813Z,54.88
2019-04-10T01:13:57.056Z,67.53
2019-04-10T01:16:23.244Z,57.17
2019-04-10T01:18:49.009Z,52.23
2019-04-10T01:21:14.848Z,56.23
2019-04-10T01:23:41.407Z,61.23
2019-04-10T01:26:07.564Z,55.95
2019-04-10T01:28:33.405Z,63.63
2019-04-10T01:30:59.214Z,58.43
2019-04-10T01:33:25.047Z,58.60
2019-04-10T01:35:54.319Z,67.10
2019-04-10T01:38:20.848Z,63.02
2019-04-10T01:40:47.792Z,64.40
2019-04-10T01:43:17.543Z,66.92
2019-04-10T01:45:41.812Z,70.10
2019-04-10T01:48:07.978Z,65.03
2019-04-10T01:50:34.673Z,70.70
2019-04-10T01:53:01.569Z,65.42
2019-04-10T01:55:30.275Z,73.33
2019-04-10T01:57:56.805Z,67.05
2019-04-10T02:00:25.681Z,73.17
2019-04-10T02:02:52.071Z,70.62
2019-04-10T02:05:18.716Z,78.15
2019-04-10T02:07:48.692Z,75.55
2019-04-10T02:10:12.745Z,82.50
2019-04-10T02:12:38.937Z,96.80
2019-04-10T02:15:05.073Z,95.12
2019-04-10T02:17:30.895Z,88.50
2019-04-10T02:19:56.865Z,94.13
2019-04-10T02:22:22.971Z,96.30
2019-04-10T02:24:49.379Z,96.67
2019-04-10T02:27:16.247Z,102.40
2019-04-10T02:29:42.371Z,93.37
2019-04-10T02:32:08.181Z,97.90
2019-04-10T02:34:34.441Z,90.67
2019-04-10T02:37:00.713Z,105.67
2019-04-10T02:39:34.078Z,99.55
2019-04-10T02:41:56.047Z,108.15
2019-04-10T02:44:22.979Z,101.00
2019-04-10T02:46:49.763Z,108.87
2019-04-10T02:49:18.482Z,109.42
2019-04-10T02:51:45.328Z,109.22
2019-04-10T02:54:11.942Z,118.53
2019-04-10T02:56:39.197Z,120.60
2019-04-10T02:59:05.169Z,117.87
2019-04-10T03:01:31.626Z,109.97
2019-04-10T03:03:57.465Z,118.75
2019-04-10T03:06:23.658Z,121.87
2019-04-10T03:09:03.444Z,125.33
2019-04-10T03:11:19.577Z,120.70
2019-04-10T03:13:45.388Z,117.42
2019-04-10T03:16:13.995Z,122.67
2019-04-10T03:18:41.024Z,113.20
2019-04-10T03:21:07.302Z,120.82
2019-04-10T03:23:33.633Z,124.38
2019-04-10T03:25:59.742Z,113.92
2019-04-10T03:28:25.589Z,126.18
2019-04-10T03:30:53.937Z,114.40
2019-04-10T03:33:29.684Z,130.40
2019-04-10T03:35:54.915Z,132.07
2019-04-10T03:38:21.685Z,123.92
2019-04-10T03:40:48.021Z,123.53
2019-04-10T03:43:14.037Z,129.30
2019-04-10T03:45:41.010Z,117.97
2019-04-10T03:48:08.427Z,120.30
2019-04-10T03:50:34.317Z,127.72
2019-04-10T03:53:00.365Z,127.83
2019-04-10T03:55:27.104Z,126.15
2019-04-10T03:57:53.350Z,132.27
2019-04-10T04:00:20.954Z,117.25
2019-04-10T04:02:46.899Z,119.97
2019-04-10T04:05:12.997Z,102.37
2019-04-10T04:07:38.935Z,112.42
2019-04-10T04:10:05.142Z,116.43
2019-04-10T04:12:30.918Z,110.08
2019-04-10T04:14:57.052Z,112.73
2019-04-10T04:17:24.138Z,117.62
2019-04-10T04:19:50.471Z,126.53
2019-04-10T04:22:16.762Z,121.02
2019-04-10T04:24:46.117Z,111.45
2019-04-10T04:27:13.165Z,115.97
2019-04-10T04:29:39.236Z,115.50
2019-04-10T04:32:05.301Z,118.33
2019-04-10T04:34:34.704Z,111.80
2019-04-10T04:37:00.840Z,131.60
2019-04-10T04:39:30.518Z,119.28
2019-04-10T04:41:58.719Z,115.47
2019-04-10T04:44:24.680Z,115.82
2019-04-10T04:46:50.675Z,112.10
2019-04-10T04:49:16.518Z,108.65
2019-04-10T04:51:42.295Z,110.33
2019-04-10T04:54:08.696Z,102.53
2019-04-10T04:56:37.540Z,107.55
2019-04-10T04:59:03.667Z,114.75
2019-04-10T05:01:29.669Z,106.50
2019-04-10T05:03:55.587Z,105.32
2019-04-10T05:06:24.415Z,115.60
2019-04-10T05:08:50.662Z,107.75
2019-04-10T05:11:22.349Z,103.72
2019-04-10T05:13:48.985Z,116.95
2019-04-10T05:16:14.914Z,115.52
2019-04-10T05:18:40.746Z,105.77
2019-04-10T05:21:10.600Z,113.43
2019-04-10T05:23:36.808Z,112.03
2019-04-10T05:26:02.781Z,111.70
2019-04-10T05:28:29.969Z,116.23
2019-04-10T05:30:56.887Z,111.60
2019-04-10T05:33:22.734Z,114.42
2019-04-10T05:35:48.803Z,101.23
2019-04-10T05:38:15.040Z,102.53
2019-04-10T05:40:40.855Z,104.50
2019-04-10T05:43:11.553Z,106.13
2019-04-10T05:45:37.978Z,105.85
2019-04-10T05:48:07.135Z,103.58
2019-04-10T05:50:33.218Z,111.45
2019-04-10T05:53:00.075Z,111.32
2019-04-10T05:55:26.663Z,104.70
2019-04-10T05:57:55.254Z,107.17
2019-04-10T06:00:22.909Z,100.55
2019-04-10T06:02:48.898Z,99.65
2019-04-10T06:05:16.121Z,108.47
2019-04-10T06:07:42.039Z,96.53
2019-04-10T06:10:10.267Z,96.73
2019-04-10T06:12:36.153Z,100.12
2019-04-10T06:15:04.503Z,109.95
2019-04-10T06:17:30.340Z,91.05
2019-04-10T06:19:56.693Z,104.87
2019-04-10T06:22:22.902Z,95.72
2019-04-10T06:24:52.237Z,92.55
2019-04-10T06:27:18.522Z,93.50
2019-04-10T06:29:45.003Z,98.33
2019-04-10T06:32:11.966Z,96.12
2019-04-10T06:34:40.909Z,100.67
2019-04-10T06:37:08.012Z,91.90
2019-04-10T06:39:35.136Z,96.08
2019-04-10T06:42:02.373Z,100.90
2019-04-10T06:44:28.433Z,95.62
2019-04-10T06:46:55.010Z,101.37
2019-04-10T06:49:21.094Z,86.00
2019-04-10T06:51:49.991Z,85.40
2019-04-10T06:54:16.433Z,97.55
2019-04-10T06:56:43.026Z,97.37
2019-04-10T06:59:09.328Z,84.97
2019-04-10T07:01:45.603Z,91.57
2019-04-10T07:04:07.411Z,91.10
2019-04-10T07:06:47.234Z,97.27
2019-04-10T07:08:59.170Z,82.57
2019-04-10T07:11:29.172Z,91.55
2019-04-10T07:13:53.871Z,88.85
2019-04-10T07:16:20.594Z,87.12
2019-04-10T07:18:49.013Z,87.27
2019-04-10T07:21:14.741Z,85.38
2019-04-10T07:23:40.788Z,97.08
2019-04-10T07:26:06.668Z,84.75
2019-04-10T07:28:33.547Z,87.00
2019-04-10T07:31:04.990Z,87.47
2019-04-10T07:33:28.791Z,84.92
2019-04-10T07:35:56.528Z,77.72
2019-04-10T07:38:22.749Z,79.35
2019-04-10T07:40:49.136Z,71.17
2019-04-10T07:43:15.267Z,74.85
2019-04-10T07:45:41.162Z,74.82
2019-04-10T07:48:10.782Z,74.90
2019-04-10T07:50:37.131Z,75.97
2019-04-10T07:53:03.269Z,79.40
2019-04-10T07:55:29.357Z,70.65
2019-04-10T07:57:55.409Z,71.65
2019-04-10T08:00:25.265Z,67.80
2019-04-10T08:02:51.586Z,72.08
2019-04-10T08:05:17.436Z,69.40
2019-04-10T08:07:43.246Z,74.73
2019-04-10T08:10:12.132Z,65.40
2019-04-10T08:12:46.036Z,85.32
2019-04-10T08:15:06.950Z,73.60
2019-04-10T08:17:32.864Z,68.00
2019-04-10T08:20:01.764Z,79.43
2019-04-10T08:22:28.687Z,71.15
2019-04-10T08:24:58.020Z,74.05
2019-04-10T08:27:23.883Z,69.45
2019-04-10T08:29:50.615Z,61.33
2019-04-10T08:32:16.779Z,71.62
2019-04-10T08:34:42.840Z,67.45
2019-04-10T08:37:08.755Z,69.62
2019-04-10T08:39:41.217Z,75.33
2019-04-10T08:42:03.422Z,71.17
2019-04-10T08:44:29.886Z,64.82
2019-04-10T08:47:00.111Z,71.82
2019-04-10T08:49:25.950Z,63.00
2019-04-10T08:51:52.196Z,74.70
2019-04-10T08:54:18.504Z,73.35
2019-04-10T08:56:46.978Z,71.72
2019-04-10T08:59:13.784Z,59.75
2019-04-10T09:01:43.010Z,61.73
2019-04-10T09:04:09.046Z,67.47
2019-04-10T09:06:35.630Z,69.53
2019-04-10T09:09:01.462Z,68.72
2019-04-10T09:11:29.726Z,74.00
2019-04-10T09:13:55.028Z,67.15
2019-04-10T09:16:20.821Z,80.83
2019-04-10T09:18:49.537Z,60.70
2019-04-10T09:21:15.676Z,65.50
2019-04-10T09:23:48.270Z,68.42
2019-04-10T09:26:09.214Z,71.70
2019-04-10T09:28:36.701Z,67.97
2019-04-10T09:31:02.872Z,65.72
2019-04-10T09:33:32.325Z,65.17
2019-04-10T09:35:58.668Z,67.50
2019-04-10T09:38:26.456Z,66.90
2019-04-10T09:40:53.284Z,70.57
2019-04-10T09:43:19.359Z,65.25
2019-04-10T09:45:45.937Z,60.20
2019-04-10T09:48:12.803Z,71.77
2019-04-10T09:50:39.588Z,64.05
2019-04-10T09:53:05.725Z,66.60
2019-04-10T09:55:34.353Z,76.62
2019-04-10T09:58:00.263Z,75.22
2019-04-10T10:00:29.948Z,66.97
2019-04-10T10:02:56.080Z,62.50
2019-04-10T10:05:22.412Z,67.70
2019-04-10T10:07:48.722Z,65.47
2019-04-10T10:10:17.524Z,71.65
2019-04-10T10:12:43.316Z,73.57
2019-04-10T10:15:13.357Z,67.77
2019-04-10T10:17:39.343Z,62.43
2019-04-10T10:20:06.222Z,58.17
2019-04-10T10:22:34.037Z,59.50
2019-04-10T10:24:59.885Z,64.70
2019-04-10T10:27:26.792Z,58.10
2019-04-10T10:29:53.516Z,59.63
2019-04-10T10:32:21.290Z,59.88
2019-04-10T10:34:47.156Z,64.35
2019-04-10T10:37:12.966Z,71.97
2019-04-10T10:39:39.123Z,68.03
2019-04-10T10:42:07.834Z,60.00
2019-04-10T10:44:38.365Z,61.95
2019-04-10T10:47:04.303Z,59.85
2019-04-10T10:49:30.641Z,82.47
2019-04-10T10:51:57.276Z,115.20
2019-04-10T10:54:23.163Z,63.25
2019-04-10T10:56:48.964Z,67.30
2019-04-10T10:59:15.474Z,66.60
2019-04-10T11:01:42.142Z,55.30
2019-04-10T11:04:08.846Z,59.13
2019-04-10T11:06:35.065Z,60.98
2019-04-10T11:09:05.863Z,65.47
2019-04-10T11:11:32.570Z,69.25
2019-04-10T11:13:58.955Z,57.95
2019-04-10T11:16:25.112Z,55.03
2019-04-10T11:18:53.037Z,54.42
2019-04-10T11:21:18.921Z,46.02
2019-04-10T11:23:49.264Z,52.23
2019-04-10T11:26:20.233Z,57.25
2019-04-10T11:28:43.339Z,56.42
2019-04-10T11:31:09.442Z,54.20
2019-04-10T11:33:35.382Z,53.07
2019-04-10T11:36:01.588Z,51.23
2019-04-10T11:38:27.392Z,48.20
2019-04-10T11:40:57.295Z,47.37
2019-04-10T11:43:21.610Z,50.70
2019-04-10T11:45:52.479Z,50.60
2019-04-10T11:48:18.318Z,57.23
2019-04-10T11:50:44.492Z,45.85
2019-04-10T11:53:10.508Z,47.20
2019-04-10T11:55:43.749Z,45.03
2019-04-10T11:58:07.841Z,90.03
2019-04-10T12:00:45.295Z,61.03
2019-04-10T12:03:08.738Z,45.63
2019-04-10T12:05:38.119Z,47.33
2019-04-10T12:08:27.956Z,46.30
2019-04-10T12:13:00.180Z,52.50
2019-04-10T12:15:26.213Z,45.70
2019-04-10T12:17:52.072Z,45.67
2019-04-10T12:20:18.726Z,50.47
2019-04-10T12:22:46.085Z,45.63
2019-04-10T12:25:14.451Z,48.80
2019-04-10T12:27:41.182Z,39.23
2019-04-10T12:30:09.482Z,49.53
2019-04-10T12:32:35.271Z,49.37
2019-04-10T12:35:01.084Z,38.03
2019-04-10T12:37:27.742Z,39.83
2019-04-10T12:39:55.101Z,41.90
2019-04-10T12:42:21.860Z,45.17
2019-04-10T12:44:47.736Z,42.80
2019-04-10T12:47:13.792Z,41.30
2019-04-10T12:49:39.883Z,41.87
2019-04-10T12:52:06.013Z,36.50
2019-04-10T12:54:31.998Z,42.50
2019-04-10T12:56:58.791Z,38.90
2019-04-10T12:59:25.693Z,38.23
2019-04-10T13:01:51.804Z,41.30
2019-04-10T13:04:18.066Z,37.17
2019-04-10T13:06:44.277Z,38.70
2019-04-10T13:09:12.919Z,48.63
2019-04-10T13:11:38.515Z,40.70
2019-04-10T13:14:04.649Z,35.90
2019-04-10T13:16:30.481Z,49.60
2019-04-10T13:18:59.034Z,36.13
2019-04-10T13:21:24.842Z,39.93
2019-04-10T13:23:50.682Z,35.17
2019-04-10T13:26:17.631Z,40.73
2019-04-10T13:28:43.562Z,34.73
2019-04-10T13:31:09.408Z,42.00
2019-04-10T13:33:36.340Z,40.50
2019-04-10T13:36:05.488Z,43.73
2019-04-10T13:38:33.935Z,39.43
2019-04-10T13:40:59.756Z,38.10
2019-04-10T13:43:25.651Z,38.83
2019-04-10T13:45:54.705Z,43.40
2019-04-10T13:48:20.764Z,37.57
2019-04-10T13:50:50.756Z,37.80
2019-04-10T13:53:17.526Z,38.63
2019-04-10T13:55:44.431Z,37.97
2019-04-10T13:58:10.806Z,33.63
2019-04-10T14:00:40.590Z,41.40
2019-04-10T14:03:06.618Z,36.40
2019-04-10T14:05:34.030Z,45.17
2019-04-10T14:07:59.981Z,37.03
2019-04-10T14:10:27.941Z,36.03
2019-04-10T14:12:53.761Z,34.07
2019-04-10T14:15:20.221Z,33.20
2019-04-10T14:17:46.178Z,33.30
2019-04-10T14:20:15.163Z,31.03
2019-04-10T14:22:43.886Z,35.47
2019-04-10T14:25:15.593Z,35.23
2019-04-10T14:27:42.581Z,36.40
2019-04-10T14:30:19.298Z,41.70
2019-04-10T14:32:45.356Z,46.73
2019-04-10T14:35:11.472Z,37.33
2019-04-10T14:37:37.926Z,37.37
2019-04-10T14:40:06.789Z,40.50
2019-04-10T14:42:32.878Z,38.53
2019-04-10T14:44:59.289Z,39.73
2019-04-10T14:47:25.604Z,38.60
2019-04-10T14:49:53.660Z,36.40
2019-04-10T14:52:19.433Z,36.57
2019-04-10T14:54:46.056Z,38.17
2019-04-10T14:57:12.738Z,40.00
2019-04-10T14:59:38.677Z,40.90
2019-04-10T15:02:06.705Z,79.50
2019-04-10T15:04:33.099Z,65.90
2019-04-10T15:06:59.028Z,44.97
2019-04-10T15:09:26.248Z,38.87
2019-04-10T15:11:53.210Z,51.53
2019-04-10T15:14:19.428Z,61.57
2019-04-10T15:16:54.443Z,88.57
2019-04-10T15:19:13.194Z,53.60
2019-04-10T15:21:39.013Z,53.23
2019-04-10T15:24:04.837Z,48.33
2019-04-10T15:26:30.656Z,60.30
2019-04-10T15:28:56.466Z,51.43
2019-04-10T15:31:24.923Z,44.63
2019-04-10T15:33:50.202Z,41.60
2019-04-10T15:36:16.250Z,44.87
2019-04-10T15:38:42.289Z,35.53
2019-04-10T15:41:08.495Z,40.03
2019-04-10T15:43:35.108Z,44.50
2019-04-10T15:46:00.892Z,44.13
2019-04-10T15:48:27.186Z,44.80
2019-04-10T15:50:53.860Z,31.40
2019-04-10T15:53:20.209Z,35.33
2019-04-10T15:55:46.107Z,35.73
2019-04-10T15:58:12.000Z,37.73
2019-04-10T16:00:38.105Z,31.87
2019-04-10T16:03:07.215Z,41.10
2019-04-10T16:05:33.441Z,33.90
2019-04-10T16:08:02.987Z,33.80
2019-04-10T16:10:30.819Z,33.00
2019-04-10T16:13:01.289Z,36.17
2019-04-10T16:15:29.227Z,34.20
2019-04-10T16:17:56.934Z,38.90
2019-04-10T16:20:25.249Z,34.07
2019-04-10T16:22:56.711Z,30.60
2019-04-10T16:25:25.597Z,30.77
2019-04-10T16:27:51.756Z,32.67
2019-04-10T16:30:19.460Z,31.17
2019-04-10T16:32:45.266Z,37.40
2019-04-10T16:35:13.598Z,30.43
2019-04-10T16:37:39.713Z,31.87
2019-04-10T16:40:08.478Z,36.80
2019-04-10T16:42:34.837Z,38.20
2019-04-10T16:45:01.770Z,33.67
2019-04-10T16:47:28.268Z,39.50
2019-04-10T16:49:55.174Z,33.47
2019-04-10T16:52:21.139Z,35.30
2019-04-10T16:54:51.479Z,36.90
2019-04-10T16:57:18.447Z,40.17
2019-04-10T16:59:44.614Z,34.43
2019-04-10T17:02:11.374Z,37.30
2019-04-10T17:04:37.220Z,38.17
2019-04-10T17:07:03.058Z,44.23
2019-04-10T17:09:29.047Z,99.70
2019-04-10T17:11:56.360Z,37.80
2019-04-10T17:14:23.687Z,39.80
2019-04-10T17:16:50.306Z,47.43
2019-04-10T17:19:16.140Z,39.00
2019-04-10T17:21:42.546Z,40.03
2019-04-10T17:24:09.201Z,43.03
2019-04-10T17:26:35.370Z,45.33
2019-04-10T17:29:01.400Z,39.23
2019-04-10T17:31:27.200Z,37.90
2019-04-10T17:33:54.452Z,39.80
2019-04-10T17:36:20.997Z,41.10
2019-04-10T17:38:46.895Z,40.80
2019-04-10T17:41:12.699Z,42.80
2019-04-10T17:43:38.496Z,40.20
2019-04-10T17:46:04.279Z,37.07
2019-04-10T17:48:31.049Z,35.90
2019-04-10T17:50:57.470Z,36.10
2019-04-10T17:53:23.357Z,38.15
2019-04-10T17:55:49.682Z,35.77
2019-04-10T17:58:19.198Z,43.02
2019-04-10T18:00:51.823Z,39.00
2019-04-10T18:03:18.925Z,41.23
2019-04-10T18:05:45.201Z,42.00
2019-04-10T18:08:11.005Z,43.03
2019-04-10T18:10:44.684Z,40.33
2019-04-10T18:13:05.256Z,38.33
2019-04-10T18:15:32.332Z,43.45
2019-04-10T18:17:59.607Z,39.00
2019-04-10T18:20:26.258Z,43.52
2019-04-10T18:22:53.324Z,40.00
2019-04-10T18:25:20.176Z,34.43
2019-04-10T18:27:46.895Z,63.83
2019-04-10T18:30:14.056Z,46.83
2019-04-10T18:32:40.145Z,45.03
2019-04-10T18:35:06.747Z,47.23
2019-04-10T18:37:32.896Z,41.80
2019-04-10T18:39:59.060Z,39.60
2019-04-10T18:42:26.695Z,39.25
2019-04-10T18:44:53.262Z,45.48
2019-04-10T18:47:19.381Z,39.85
2019-04-10T18:49:48.552Z,45.15
2019-04-10T18:52:15.069Z,38.63
2019-04-10T18:54:41.511Z,41.20
2019-04-10T18:57:07.444Z,48.30
2019-04-10T18:59:35.131Z,44.40
2019-04-10T19:02:12.279Z,43.78
2019-04-10T19:04:49.577Z,43.15
2019-04-10T19:07:15.428Z,47.65
2019-04-10T19:09:41.223Z,42.00
2019-04-10T19:12:07.059Z,46.23
2019-04-10T19:14:36.183Z,40.70
2019-04-10T19:17:00.568Z,45.80
2019-04-10T19:19:26.370Z,43.37
2019-04-10T19:21:52.158Z,53.83
2019-04-10T19:24:19.697Z,45.53
2019-04-10T19:26:45.550Z,46.30
2019-04-10T19:29:11.373Z,41.40
2019-04-10T19:31:40.271Z,44.33
2019-04-10T19:34:07.282Z,45.75
2019-04-10T19:36:34.298Z,45.58
2019-04-10T19:39:00.309Z,50.60
2019-04-10T19:41:32.857Z,41.40
2019-04-10T19:43:54.808Z,40.20
2019-04-10T19:46:21.562Z,42.50
2019-04-10T19:48:50.232Z,46.23
2019-04-10T19:51:16.381Z,35.60
2019-04-10T19:53:42.286Z,41.37
2019-04-10T19:56:09.360Z,41.37
2019-04-10T19:58:36.495Z,44.00
2019-04-10T20:01:05.110Z,38.10
2019-04-10T20:03:32.074Z,45.15
2019-04-10T20:05:57.952Z,46.25
2019-04-10T20:08:24.126Z,45.37
2019-04-10T20:10:49.953Z,48.75
2019-04-10T20:13:16.572Z,47.37
2019-04-10T20:15:42.679Z,46.05
2019-04-10T20:18:08.931Z,45.92
2019-04-10T20:20:35.232Z,49.35
2019-04-10T20:23:02.455Z,44.53
2019-04-10T20:25:28.447Z,44.25
2019-04-10T20:27:54.246Z,45.40
2019-04-10T20:30:22.019Z,40.40
2019-04-10T20:32:47.824Z,36.33
2019-04-10T20:35:13.640Z,42.23
2019-04-10T20:37:39.750Z,43.73
2019-04-10T20:40:05.679Z,37.80
2019-04-10T20:42:32.165Z,42.23
2019-04-10T20:44:58.878Z,36.70
2019-04-10T20:47:25.051Z,42.38
2019-04-10T20:49:51.181Z,42.00
2019-04-10T20:52:17.933Z,35.55
2019-04-10T20:54:44.772Z,45.23
2019-04-10T20:57:11.050Z,36.65
2019-04-10T20:59:37.174Z,43.30
2019-04-10T21:02:04.191Z,33.58
2019-04-10T21:04:30.015Z,40.85
2019-04-10T21:06:58.670Z,36.47
2019-04-10T21:09:25.784Z,37.00
2019-04-10T21:12:02.224Z,38.70
2019-04-10T21:14:23.218Z,36.03
2019-04-10T21:16:49.804Z,36.77
2019-04-10T21:19:16.436Z,59.15
2019-04-10T21:21:43.438Z,37.28
2019-04-10T21:24:09.343Z,33.78
2019-04-10T21:26:35.150Z,34.27
2019-04-10T21:29:02.432Z,34.60
2019-04-10T21:31:40.572Z,67.50
2019-04-10T21:34:14.347Z,34.35
2019-04-10T21:36:41.397Z,34.35
2019-04-10T21:39:07.484Z,37.50
2019-04-10T21:41:34.525Z,37.75
2019-04-10T21:44:02.270Z,33.50
2019-04-10T21:46:28.455Z,32.42
2019-04-10T21:48:55.145Z,47.00
2019-04-10T21:51:21.181Z,37.48
2019-04-10T21:53:47.301Z,30.23
2019-04-10T21:56:13.441Z,33.25
2019-04-10T21:58:39.282Z,24.87
2019-04-10T22:01:06.106Z,30.33
2019-04-10T22:03:32.023Z,29.63
2019-04-10T22:06:16.182Z,31.20
2019-04-10T22:08:50.058Z,29.75
2019-04-10T22:11:17.000Z,27.27
2019-04-10T22:13:42.985Z,26.73
2019-04-10T22:16:11.413Z,29.90
2019-04-10T22:18:37.647Z,25.25
2019-04-10T22:21:04.112Z,21.45
2019-04-10T22:23:30.203Z,34.63
2019-04-10T22:25:56.349Z,28.47
2019-04-10T22:28:23.247Z,22.82
2019-04-10T22:30:50.350Z,26.12
2019-04-10T22:33:16.430Z,25.72
2019-04-10T22:35:42.389Z,29.73
2019-04-10T22:38:13.130Z,28.80
2019-04-10T22:40:40.043Z,30.48
2019-04-10T22:43:07.410Z,29.02
2019-04-10T22:45:33.332Z,26.37
2019-04-10T22:48:00.552Z,24.73
2019-04-10T22:50:27.528Z,28.27
2019-04-10T22:52:54.881Z,25.90
2019-04-10T22:55:21.814Z,26.12
2019-04-10T22:57:48.469Z,33.15
2019-04-10T23:00:16.770Z,16.12
2019-04-10T23:02:42.883Z,25.45
2019-04-10T23:05:09.835Z,24.25
2019-04-10T23:07:35.712Z,18.42
2019-04-10T23:10:02.594Z,18.77
2019-04-10T23:12:28.527Z,19.67
2019-04-10T23:14:55.385Z,34.83
2019-04-10T23:17:21.224Z,16.93
2019-04-10T23:19:47.102Z,26.40
2019-04-10T23:22:13.435Z,16.90
2019-04-10T23:24:40.099Z,19.30
2019-04-10T23:27:06.014Z,20.80
2019-04-10T23:29:32.642Z,18.63
2019-04-10T23:31:58.835Z,14.95
2019-04-10T23:34:25.152Z,17.65
2019-04-10T23:36:50.910Z,19.67
2019-04-10T23:39:16.995Z,18.50
2019-04-10T23:41:42.793Z,20.08
2019-04-10T23:44:09.006Z,23.70
2019-04-10T23:46:34.805Z,19.10
2019-04-10T23:49:01.335Z,20.50
2019-04-10T23:51:29.365Z,17.98
2019-04-10T23:53:55.566Z,19.45
2019-04-10T23:56:21.837Z,16.00
2019-04-10T23:58:49.077Z,19.42
